TSC153 SPJC-CYYZ
Flight info
| Callsign | TSC153 |
|---|---|
| Flight time | N/A |
| Altitude | 32000 |
| Route | ATATU UV1 TRU UL780 BUXOS/N0464F340 UL780 TBG UL465 GCM UG448 UCL/N0458F360 UG448 IKBIX/N0456F350 Y183 PEAKY Q87 TIRCO/N0454F360 Q87 ZERBO/N0452F350 Q87 VIYAP Q69 GURGE/N0445F370 Q69 RICCS DCT OXMAN LINNG3 |
| Aircraft | A21N/M-SDE2E3FGHIJ1RWXY/LB1 |
Departure
| Time | N/A |
|---|---|
| Airport | Jorge Chávez International Airport (SPJC) |
Arrival
| Time | 2026-05-03 20:47 |
|---|---|
| Airport | Toronto Pearson International Airport (CYYZ) |
| Time | Latitude | Longitude | Altitude | Speed | Heading |
|---|---|---|---|---|---|
| 2026-05-03 20:15 | 41.49483 | -79.51034 | 34992 ft | 449 kts | 7° |
| 2026-05-03 20:15 | 41.55613 | -79.49611 | 34981 ft | 449 kts | 7° |
| 2026-05-03 20:16 | 41.61762 | -79.48184 | 34979 ft | 449 kts | 7° |
| 2026-05-03 20:16 | 41.67916 | -79.46752 | 34979 ft | 448 kts | 7° |
| 2026-05-03 20:17 | 41.74072 | -79.45315 | 34970 ft | 448 kts | 7° |
| 2026-05-03 20:17 | 41.80214 | -79.43879 | 34965 ft | 448 kts | 7° |
| 2026-05-03 20:18 | 41.86330 | -79.42446 | 34958 ft | 448 kts | 7° |
| 2026-05-03 20:18 | 41.92487 | -79.41003 | 34955 ft | 448 kts | 7° |
| 2026-05-03 20:19 | 41.98597 | -79.39565 | 34746 ft | 446 kts | 7° |
| 2026-05-03 20:19 | 42.01678 | -79.38839 | 33683 ft | 452 kts | 7° |
| 2026-05-03 20:19 | 42.04807 | -79.38105 | 32508 ft | 459 kts | 7° |
| 2026-05-03 20:19 | 42.07954 | -79.37362 | 31618 ft | 459 kts | 7° |
| 2026-05-03 20:20 | 42.10040 | -79.36876 | 31145 ft | 455 kts | 6° |
| 2026-05-03 20:20 | 42.13157 | -79.36452 | 30517 ft | 446 kts | 1° |
| 2026-05-03 20:20 | 42.16241 | -79.36203 | 29918 ft | 438 kts | 0° |
| 2026-05-03 20:20 | 42.19270 | -79.35966 | 29288 ft | 432 kts | 0° |
| 2026-05-03 20:21 | 42.22217 | -79.35734 | 28665 ft | 426 kts | 0° |
| 2026-05-03 20:21 | 42.25163 | -79.35500 | 28048 ft | 420 kts | 0° |
| 2026-05-03 20:21 | 42.28069 | -79.35267 | 27446 ft | 414 kts | 0° |
| 2026-05-03 20:21 | 42.30934 | -79.35037 | 26825 ft | 409 kts | 0° |
| 2026-05-03 20:22 | 42.33765 | -79.34810 | 26200 ft | 404 kts | 0° |
| 2026-05-03 20:22 | 42.36557 | -79.34586 | 25602 ft | 399 kts | 0° |
| 2026-05-03 20:22 | 42.39315 | -79.34364 | 25022 ft | 393 kts | 0° |
| 2026-05-03 20:22 | 42.41998 | -79.34148 | 24435 ft | 388 kts | 0° |
| 2026-05-03 20:23 | 42.44679 | -79.33932 | 23842 ft | 384 kts | 0° |
| 2026-05-03 20:23 | 42.47334 | -79.33717 | 23254 ft | 379 kts | 0° |
| 2026-05-03 20:23 | 42.49947 | -79.33503 | 22690 ft | 374 kts | 0° |
| 2026-05-03 20:23 | 42.52534 | -79.33293 | 22110 ft | 370 kts | 0° |
| 2026-05-03 20:24 | 42.55103 | -79.33088 | 21527 ft | 366 kts | 0° |
| 2026-05-03 20:24 | 42.57638 | -79.32885 | 20965 ft | 362 kts | 1° |
| 2026-05-03 20:24 | 42.60141 | -79.32678 | 20424 ft | 358 kts | 1° |
| 2026-05-03 20:24 | 42.62592 | -79.32479 | 19904 ft | 356 kts | 0° |
| 2026-05-03 20:25 | 42.65057 | -79.32280 | 19404 ft | 354 kts | 1° |
| 2026-05-03 20:25 | 42.67516 | -79.32080 | 18929 ft | 352 kts | 0° |
| 2026-05-03 20:25 | 42.69949 | -79.31884 | 18469 ft | 350 kts | 1° |
| 2026-05-03 20:25 | 42.72383 | -79.31684 | 18003 ft | 348 kts | 0° |
| 2026-05-03 20:26 | 42.74802 | -79.31486 | 17547 ft | 347 kts | 0° |
| 2026-05-03 20:26 | 42.77208 | -79.31291 | 17133 ft | 343 kts | 1° |
| 2026-05-03 20:26 | 42.79576 | -79.31097 | 16737 ft | 339 kts | 0° |
| 2026-05-03 20:26 | 42.81911 | -79.30906 | 16318 ft | 337 kts | 0° |
| 2026-05-03 20:27 | 42.84251 | -79.30881 | 16079 ft | 334 kts | 354° |
| 2026-05-03 20:27 | 42.86562 | -79.31092 | 16035 ft | 333 kts | 353° |
| 2026-05-03 20:27 | 42.88879 | -79.31324 | 16041 ft | 334 kts | 353° |
| 2026-05-03 20:27 | 42.91205 | -79.31555 | 16051 ft | 334 kts | 353° |
| 2026-05-03 20:28 | 42.93493 | -79.31782 | 16052 ft | 334 kts | 353° |
| 2026-05-03 20:28 | 42.95812 | -79.32011 | 16052 ft | 334 kts | 353° |
| 2026-05-03 20:28 | 42.98122 | -79.32242 | 15885 ft | 331 kts | 353° |
| 2026-05-03 20:28 | 43.00433 | -79.32472 | 15156 ft | 334 kts | 353° |
| 2026-05-03 20:29 | 43.02774 | -79.32706 | 14320 ft | 339 kts | 353° |
| 2026-05-03 20:29 | 43.05118 | -79.32942 | 13848 ft | 331 kts | 353° |
| 2026-05-03 20:29 | 43.07383 | -79.33166 | 13540 ft | 322 kts | 353° |
| 2026-05-03 20:29 | 43.09594 | -79.33388 | 13292 ft | 323 kts | 353° |
| 2026-05-03 20:30 | 43.11836 | -79.33611 | 13069 ft | 321 kts | 353° |
| 2026-05-03 20:30 | 43.14067 | -79.33836 | 12843 ft | 321 kts | 353° |
| 2026-05-03 20:30 | 43.16300 | -79.34062 | 12627 ft | 320 kts | 353° |
| 2026-05-03 20:30 | 43.18515 | -79.34288 | 12418 ft | 319 kts | 353° |
| 2026-05-03 20:31 | 43.20703 | -79.34507 | 12211 ft | 319 kts | 353° |
| 2026-05-03 20:31 | 43.22922 | -79.34731 | 12001 ft | 318 kts | 353° |
| 2026-05-03 20:31 | 43.25131 | -79.34956 | 11792 ft | 317 kts | 353° |
| 2026-05-03 20:31 | 43.27341 | -79.35183 | 11584 ft | 317 kts | 353° |
| 2026-05-03 20:32 | 43.29537 | -79.35438 | 11355 ft | 315 kts | 349° |
| 2026-05-03 20:32 | 43.31610 | -79.36250 | 10828 ft | 307 kts | 334° |
| 2026-05-03 20:32 | 43.33487 | -79.37445 | 10534 ft | 296 kts | 332° |
| 2026-05-03 20:32 | 43.35309 | -79.38647 | 10316 ft | 283 kts | 332° |
| 2026-05-03 20:33 | 43.37063 | -79.39803 | 9979 ft | 276 kts | 332° |
| 2026-05-03 20:33 | 43.38763 | -79.40932 | 9536 ft | 274 kts | 332° |
| 2026-05-03 20:33 | 43.40488 | -79.42066 | 9044 ft | 273 kts | 332° |
| 2026-05-03 20:33 | 43.42212 | -79.43189 | 8561 ft | 274 kts | 332° |
| 2026-05-03 20:34 | 43.43943 | -79.44314 | 8252 ft | 274 kts | 333° |
| 2026-05-03 20:34 | 43.45678 | -79.45424 | 8113 ft | 274 kts | 333° |
| 2026-05-03 20:34 | 43.47402 | -79.46540 | 8030 ft | 274 kts | 332° |
| 2026-05-03 20:34 | 43.49103 | -79.47647 | 8038 ft | 273 kts | 332° |
| 2026-05-03 20:35 | 43.50826 | -79.48758 | 8055 ft | 273 kts | 333° |
| 2026-05-03 20:35 | 43.52550 | -79.49861 | 8068 ft | 274 kts | 333° |
| 2026-05-03 20:35 | 43.54282 | -79.50971 | 8072 ft | 274 kts | 333° |
| 2026-05-03 20:35 | 43.56008 | -79.52086 | 8070 ft | 274 kts | 333° |
| 2026-05-03 20:36 | 43.57743 | -79.53179 | 8068 ft | 274 kts | 336° |
| 2026-05-03 20:36 | 43.59639 | -79.53499 | 8043 ft | 280 kts | 7° |
| 2026-05-03 20:36 | 43.61415 | -79.52486 | 7854 ft | 282 kts | 35° |
| 2026-05-03 20:36 | 43.62770 | -79.50535 | 7215 ft | 282 kts | 50° |
| 2026-05-03 20:37 | 43.63959 | -79.48429 | 6802 ft | 273 kts | 50° |
| 2026-05-03 20:37 | 43.65143 | -79.46442 | 6500 ft | 262 kts | 48° |
| 2026-05-03 20:37 | 43.66300 | -79.44589 | 6205 ft | 249 kts | 47° |
| 2026-05-03 20:37 | 43.67434 | -79.42856 | 5822 ft | 239 kts | 46° |
| 2026-05-03 20:38 | 43.68556 | -79.41195 | 5298 ft | 235 kts | 45° |
| 2026-05-03 20:38 | 43.69671 | -79.39568 | 4729 ft | 233 kts | 45° |
| 2026-05-03 20:38 | 43.70790 | -79.37942 | 4287 ft | 232 kts | 45° |
| 2026-05-03 20:38 | 43.71883 | -79.36341 | 4102 ft | 231 kts | 45° |
| 2026-05-03 20:39 | 43.72985 | -79.34740 | 4086 ft | 228 kts | 45° |
| 2026-05-03 20:39 | 43.74071 | -79.33128 | 4091 ft | 228 kts | 46° |
| 2026-05-03 20:39 | 43.75160 | -79.31523 | 4093 ft | 228 kts | 45° |
| 2026-05-03 20:39 | 43.76275 | -79.29910 | 4095 ft | 228 kts | 45° |
| 2026-05-03 20:40 | 43.77385 | -79.28388 | 4088 ft | 227 kts | 34° |
| 2026-05-03 20:40 | 43.78818 | -79.27577 | 4084 ft | 223 kts | 3° |
| 2026-05-03 20:40 | 43.80324 | -79.27879 | 4080 ft | 218 kts | 332° |
| 2026-05-03 20:40 | 43.81574 | -79.28997 | 4089 ft | 217 kts | 321° |
| 2026-05-03 20:41 | 43.82718 | -79.30389 | 4074 ft | 215 kts | 304° |
| 2026-05-03 20:41 | 43.83247 | -79.32251 | 4068 ft | 212 kts | 273° |
| 2026-05-03 20:41 | 43.83137 | -79.34293 | 4079 ft | 212 kts | 261° |
| 2026-05-03 20:41 | 43.82885 | -79.36297 | 4074 ft | 205 kts | 255° |
| 2026-05-03 20:42 | 43.82318 | -79.37949 | 4098 ft | 188 kts | 236° |
| 2026-05-03 20:42 | 43.81473 | -79.39378 | 4138 ft | 193 kts | 228° |
| 2026-05-03 20:42 | 43.80571 | -79.40682 | 4087 ft | 179 kts | 228° |
| 2026-05-03 20:42 | 43.79747 | -79.41888 | 3976 ft | 170 kts | 228° |
| 2026-05-03 20:43 | 43.78932 | -79.43079 | 3794 ft | 171 kts | 227° |
| 2026-05-03 20:43 | 43.78112 | -79.44280 | 3565 ft | 170 kts | 227° |
| 2026-05-03 20:43 | 43.77299 | -79.45469 | 3354 ft | 169 kts | 227° |
| 2026-05-03 20:43 | 43.76487 | -79.46656 | 3110 ft | 169 kts | 227° |
| 2026-05-03 20:44 | 43.75690 | -79.47821 | 2885 ft | 169 kts | 227° |
| 2026-05-03 20:44 | 43.74883 | -79.49000 | 2665 ft | 168 kts | 227° |
| 2026-05-03 20:44 | 43.74080 | -79.50172 | 2433 ft | 167 kts | 227° |
| 2026-05-03 20:44 | 43.73292 | -79.51324 | 2210 ft | 161 kts | 227° |
| 2026-05-03 20:45 | 43.72537 | -79.52425 | 2015 ft | 156 kts | 227° |
| 2026-05-03 20:45 | 43.71799 | -79.53503 | 1801 ft | 148 kts | 227° |
| 2026-05-03 20:45 | 43.71153 | -79.54445 | 1595 ft | 131 kts | 227° |
| 2026-05-03 20:45 | 43.70529 | -79.55356 | 1431 ft | 130 kts | 226° |
| 2026-05-03 20:46 | 43.69905 | -79.56268 | 1267 ft | 130 kts | 227° |
| 2026-05-03 20:46 | 43.69283 | -79.57179 | 1081 ft | 130 kts | 227° |
| 2026-05-03 20:46 | 43.68661 | -79.58071 | 924 ft | 128 kts | 226° |
| 2026-05-03 20:46 | 43.68038 | -79.58968 | 781 ft | 129 kts | 226° |
| 2026-05-03 20:47 | 43.67423 | -79.59877 | 592 ft | 131 kts | 227° |
| 2026-05-03 20:47 | 43.66850 | -79.60708 | 568 ft | 101 kts | 225° |
| 2026-05-03 20:47 | 43.66500 | -79.61221 | 564 ft | 43 kts | 230° |
| 2026-05-03 20:47 | 43.66407 | -79.61456 | 568 ft | 28 kts | 252° |
| 2026-05-03 20:48 | 43.66378 | -79.61658 | 563 ft | 21 kts | 271° |
| 2026-05-03 20:48 | 43.66466 | -79.61808 | 572 ft | 20 kts | 315° |
| 2026-05-03 20:48 | 43.66535 | -79.61900 | 570 ft | 12 kts | 316° |
| 2026-05-03 20:48 | 43.66605 | -79.61993 | 576 ft | 16 kts | 317° |
| 2026-05-03 20:49 | 43.66703 | -79.61967 | 571 ft | 16 kts | 43° |
| 2026-05-03 20:49 | 43.66748 | -79.61907 | 574 ft | 17 kts | 44° |
| 2026-05-03 20:49 | 43.66810 | -79.61825 | 575 ft | 0 kts | 43° |
| 2026-05-03 20:49 | 43.66820 | -79.61812 | 571 ft | 5 kts | 43° |
| 2026-05-03 20:50 | 43.66864 | -79.61756 | 572 ft | 11 kts | 42° |
| 2026-05-03 20:50 | 43.66930 | -79.61674 | 572 ft | 14 kts | 41° |
| 2026-05-03 20:50 | 43.67010 | -79.61576 | 572 ft | 16 kts | 41° |
| 2026-05-03 20:50 | 43.67102 | -79.61463 | 576 ft | 19 kts | 42° |
| 2026-05-03 20:51 | 43.67189 | -79.61327 | 572 ft | 17 kts | 50° |
| 2026-05-03 20:51 | 43.67260 | -79.61256 | 571 ft | 13 kts | 355° |
| 2026-05-03 20:51 | 43.67337 | -79.61341 | 567 ft | 16 kts | 317° |
| 2026-05-03 20:51 | 43.67423 | -79.61451 | 574 ft | 18 kts | 317° |
| 2026-05-03 20:52 | 43.67519 | -79.61575 | 569 ft | 20 kts | 318° |
| 2026-05-03 20:52 | 43.67624 | -79.61712 | 573 ft | 22 kts | 315° |
| 2026-05-03 20:52 | 43.67739 | -79.61860 | 570 ft | 23 kts | 316° |
| 2026-05-03 20:52 | 43.67858 | -79.62017 | 568 ft | 24 kts | 322° |
| 2026-05-03 20:53 | 43.68003 | -79.62142 | 567 ft | 25 kts | 317° |
| 2026-05-03 20:53 | 43.68133 | -79.62311 | 569 ft | 25 kts | 317° |
| 2026-05-03 20:53 | 43.68222 | -79.62422 | 567 ft | 9 kts | 319° |
| 2026-05-03 20:53 | 43.68285 | -79.62407 | 569 ft | 10 kts | 25° |
| 2026-05-03 20:54 | 43.68353 | -79.62355 | 571 ft | 12 kts | 38° |
| 2026-05-03 20:54 | 43.68465 | -79.62332 | 567 ft | 0 kts | 329° |
| 2026-05-03 20:55 | 43.68466 | -79.62332 | 567 ft | 0 kts | 329° |